Time;durP1;ratioP1;P1;durP2;ratioP2;P2;SDS_P1;SDS_P2;PMS_P1;PMS_P2;Temp;Humidity;BMP_temperature;BMP_pressure;BME280_temperature;BME280_humidity;BME280_pressure;Samples;Min_cycle;Max_cycle;Signal;HPM_P1;HPM_P2
2021/04/25 00:01:16;;;;;;;38.47;22.98;;;;;;;;;;4943448;28;20547;-47
2021/04/25 00:03:43;;;;;;;33.13;21.45;;;;;;;;;;4945778;28;20033;-46
2021/04/25 00:06:09;;;;;;;31.92;19.73;;;;;;;;;;4945075;28;20055;-46
2021/04/25 00:08:35;;;;;;;29.67;19.23;;;;;;;;;;4945637;28;20046;-47
2021/04/25 00:11:01;;;;;;;33.78;18.85;;;;;;;;;;4945627;28;20103;-47
2021/04/25 00:13:28;;;;;;;46.13;20.83;;;;;;;;;;4945598;28;20022;-47
2021/04/25 00:15:54;;;;;;;35.45;22.02;;;;;;;;;;4945936;28;20042;-47
2021/04/25 00:18:20;;;;;;;33.72;19.17;;;;;;;;;;4945525;28;20061;-47
2021/04/25 00:20:46;;;;;;;35.20;20.83;;;;;;;;;;4945650;28;20074;-47
2021/04/25 00:23:13;;;;;;;34.40;21.70;;;;;;;;;;4945524;28;20498;-46
2021/04/25 00:25:39;;;;;;;36.92;20.90;;;;;;;;;;4945406;28;20877;-46
2021/04/25 00:28:05;;;;;;;43.05;22.92;;;;;;;;;;4945090;28;20023;-47
2021/04/25 00:30:35;;;;;;;41.95;23.05;;;;;;;;;;4945033;28;20039;-46
2021/04/25 00:33:02;;;;;;;36.10;21.02;;;;;;;;;;4943689;28;20474;-46
2021/04/25 00:35:28;;;;;;;44.30;23.83;;;;;;;;;;4945057;28;20463;-46
2021/04/25 00:37:54;;;;;;;34.88;19.50;;;;;;;;;;4945710;28;20134;-47
2021/04/25 00:40:20;;;;;;;36.00;22.23;;;;;;;;;;4944963;28;20028;-48
2021/04/25 00:42:47;;;;;;;37.67;22.00;;;;;;;;;;4945133;28;20031;-46
2021/04/25 00:45:14;;;;;;;46.67;22.02;;;;;;;;;;4942201;28;20035;-46
2021/04/25 00:47:42;;;;;;;38.78;21.52;;;;;;;;;;4944753;28;20035;-46
2021/04/25 00:50:08;;;;;;;38.58;20.77;;;;;;;;;;4945979;28;20038;-46
2021/04/25 00:52:37;;;;;;;41.22;22.25;;;;;;;;;;4994460;28;20058;-46
2021/04/25 00:55:03;;;;;;;45.97;26.15;;;;;;;;;;4994394;28;20525;-48
2021/04/25 00:57:30;;;;;;;50.72;25.17;;;;;;;;;;4994037;28;20162;-46
2021/04/25 00:59:56;;;;;;;36.63;22.25;;;;;;;;;;4994241;28;20027;-46
2021/04/25 01:02:23;;;;;;;35.95;18.98;;;;;;;;;;4994430;28;20401;-46
2021/04/25 01:04:49;;;;;;;32.45;17.95;;;;;;;;;;4994198;28;20474;-47
2021/04/25 01:07:15;;;;;;;41.08;22.73;;;;;;;;;;4994042;28;20405;-47
2021/04/25 01:09:41;;;;;;;36.15;22.73;;;;;;;;;;4994129;28;20038;-46
2021/04/25 01:12:08;;;;;;;40.75;21.52;;;;;;;;;;4993825;28;20023;-48
2021/04/25 01:14:34;;;;;;;36.28;21.45;;;;;;;;;;4993977;28;20026;-46
2021/04/25 01:17:00;;;;;;;39.03;21.50;;;;;;;;;;4994081;28;20084;-47
2021/04/25 01:19:28;;;;;;;35.50;21.45;;;;;;;;;;4994278;28;20030;-47
2021/04/25 01:21:54;;;;;;;35.28;21.25;;;;;;;;;;4993935;28;20033;-48
2021/04/25 01:24:23;;;;;;;37.35;22.50;;;;;;;;;;4995825;28;20375;-47
2021/04/25 01:26:49;;;;;;;38.85;21.60;;;;;;;;;;5000188;28;20382;-48
2021/04/25 01:29:15;;;;;;;41.28;20.88;;;;;;;;;;5000295;28;20117;-46
2021/04/25 01:31:41;;;;;;;33.75;20.58;;;;;;;;;;5000510;28;20029;-48
2021/04/25 01:34:08;;;;;;;37.67;20.98;;;;;;;;;;5000512;28;20018;-46
2021/04/25 01:36:34;;;;;;;39.67;23.77;;;;;;;;;;5000405;28;20030;-46
2021/04/25 01:39:00;;;;;;;46.42;26.33;;;;;;;;;;5000596;28;20027;-47
2021/04/25 01:41:26;;;;;;;45.50;25.40;;;;;;;;;;5000316;28;20064;-47
2021/04/25 01:43:54;;;;;;;44.10;23.77;;;;;;;;;;5000368;28;20111;-46
2021/04/25 01:46:21;;;;;;;42.47;22.75;;;;;;;;;;5000634;28;20030;-46
2021/04/25 01:48:47;;;;;;;32.35;19.92;;;;;;;;;;5000361;28;20490;-47
2021/04/25 01:51:14;;;;;;;37.78;21.40;;;;;;;;;;5000316;28;20030;-47
2021/04/25 01:53:40;;;;;;;35.78;20.25;;;;;;;;;;5000068;28;20113;-47
2021/04/25 01:56:06;;;;;;;39.45;24.77;;;;;;;;;;5000000;28;20101;-47
2021/04/25 01:58:32;;;;;;;32.35;18.90;;;;;;;;;;5000345;28;20030;-47
2021/04/25 02:00:59;;;;;;;32.10;18.67;;;;;;;;;;5000256;28;20037;-47
2021/04/25 02:03:25;;;;;;;34.95;19.58;;;;;;;;;;5000249;28;20026;-47
2021/04/25 02:05:51;;;;;;;36.60;19.70;;;;;;;;;;4999826;28;20037;-47
2021/04/25 02:08:18;;;;;;;34.70;19.08;;;;;;;;;;4981745;28;20462;-45
2021/04/25 02:10:46;;;;;;;36.67;20.63;;;;;;;;;;4974532;28;20492;-45
2021/04/25 02:13:15;;;;;;;46.92;27.50;;;;;;;;;;4969437;28;20033;-46
2021/04/25 02:15:41;;;;;;;36.70;20.52;;;;;;;;;;4968478;28;20115;-45
2021/04/25 02:18:07;;;;;;;37.88;22.13;;;;;;;;;;4966626;28;20030;-46
2021/04/25 02:20:33;;;;;;;39.63;21.10;;;;;;;;;;4977302;28;20106;-47
2021/04/25 02:23:00;;;;;;;29.80;18.65;;;;;;;;;;4980672;28;20026;-47
2021/04/25 02:25:26;;;;;;;37.67;20.80;;;;;;;;;;4980500;28;20030;-45
2021/04/25 02:27:53;;;;;;;34.47;18.50;;;;;;;;;;4980234;28;20432;-45
2021/04/25 02:30:23;;;;;;;26.92;15.13;;;;;;;;;;4980481;28;20030;-46
2021/04/25 02:32:50;;;;;;;28.53;15.57;;;;;;;;;;4980291;28;20478;-45
2021/04/25 02:35:17;;;;;;;32.47;18.52;;;;;;;;;;4979714;28;20090;-46
2021/04/25 02:37:43;;;;;;;29.98;18.15;;;;;;;;;;4976598;28;20054;-45
2021/04/25 02:40:11;;;;;;;29.70;17.58;;;;;;;;;;4977128;28;20027;-46
2021/04/25 02:42:38;;;;;;;33.25;20.02;;;;;;;;;;4977340;28;20450;-46
2021/04/25 02:45:04;;;;;;;33.28;20.35;;;;;;;;;;4977252;28;20026;-45
2021/04/25 02:47:30;;;;;;;34.47;18.60;;;;;;;;;;4977432;28;20038;-46
2021/04/25 02:49:57;;;;;;;36.50;18.75;;;;;;;;;;4977172;28;20077;-46
2021/04/25 02:52:26;;;;;;;30.17;17.27;;;;;;;;;;4976961;28;20165;-47
2021/04/25 02:54:55;;;;;;;33.22;17.73;;;;;;;;;;4977295;28;20038;-46
2021/04/25 02:57:21;;;;;;;30.83;17.40;;;;;;;;;;4977130;28;20081;-46
2021/04/25 02:59:48;;;;;;;29.73;17.75;;;;;;;;;;4977182;28;20030;-46
2021/04/25 03:02:14;;;;;;;37.03;18.73;;;;;;;;;;4977056;28;20027;-46
2021/04/25 03:04:40;;;;;;;32.92;19.08;;;;;;;;;;4976887;28;20027;-46
2021/04/25 03:07:06;;;;;;;28.52;17.77;;;;;;;;;;4976686;28;20518;-47
2021/04/25 03:09:32;;;;;;;33.88;19.10;;;;;;;;;;4977070;28;20113;-47
2021/04/25 03:11:58;;;;;;;32.47;19.15;;;;;;;;;;4976777;28;20034;-47
2021/04/25 03:14:24;;;;;;;31.83;20.40;;;;;;;;;;4976820;28;20352;-46
2021/04/25 03:16:50;;;;;;;33.40;20.13;;;;;;;;;;4976686;28;20027;-46
2021/04/25 03:19:17;;;;;;;35.22;20.20;;;;;;;;;;4976846;28;20387;-46
2021/04/25 03:21:43;;;;;;;38.88;19.58;;;;;;;;;;4976702;28;20023;-46
2021/04/25 03:24:09;;;;;;;31.73;19.50;;;;;;;;;;4976597;28;20057;-46
2021/04/25 03:26:35;;;;;;;37.97;21.08;;;;;;;;;;4976321;28;20081;-46
2021/04/25 03:29:01;;;;;;;33.50;19.42;;;;;;;;;;4976647;28;20026;-46
2021/04/25 03:31:27;;;;;;;42.75;20.02;;;;;;;;;;4976623;28;20035;-46
2021/04/25 03:33:53;;;;;;;37.95;21.17;;;;;;;;;;4976551;28;20027;-46
2021/04/25 03:36:19;;;;;;;37.85;19.55;;;;;;;;;;4976316;28;20034;-47
2021/04/25 03:38:45;;;;;;;36.72;20.42;;;;;;;;;;4976150;28;20023;-46
2021/04/25 03:41:12;;;;;;;38.95;22.83;;;;;;;;;;4976228;28;20479;-47
2021/04/25 03:43:38;;;;;;;41.28;22.33;;;;;;;;;;4976415;28;20105;-47
2021/04/25 03:46:04;;;;;;;36.63;22.02;;;;;;;;;;4976389;28;20498;-48
2021/04/25 03:48:30;;;;;;;40.63;21.80;;;;;;;;;;4976015;28;20062;-46
2021/04/25 03:50:56;;;;;;;36.55;21.42;;;;;;;;;;4975975;28;20510;-46
2021/04/25 03:53:22;;;;;;;36.88;20.88;;;;;;;;;;4976045;28;20019;-47
2021/04/25 03:55:48;;;;;;;38.28;24.15;;;;;;;;;;4975903;28;20047;-45
2021/04/25 03:58:14;;;;;;;73.93;33.17;;;;;;;;;;4975808;28;20371;-47
2021/04/25 04:00:40;;;;;;;57.20;29.20;;;;;;;;;;4976008;28;20025;-47
2021/04/25 04:03:09;;;;;;;50.13;28.85;;;;;;;;;;4975756;28;20033;-46
2021/04/25 04:05:35;;;;;;;49.35;25.38;;;;;;;;;;4975863;28;20046;-46
2021/04/25 04:08:01;;;;;;;48.45;25.70;;;;;;;;;;4975596;28;20043;-46
2021/04/25 04:10:27;;;;;;;45.25;23.42;;;;;;;;;;4975670;28;20506;-47
2021/04/25 04:12:53;;;;;;;51.88;25.65;;;;;;;;;;4975571;28;20023;-46
2021/04/25 04:15:19;;;;;;;46.97;26.48;;;;;;;;;;4975629;28;20030;-46
2021/04/25 04:17:45;;;;;;;49.58;26.15;;;;;;;;;;4975830;28;20023;-46
2021/04/25 04:20:12;;;;;;;61.85;30.27;;;;;;;;;;4975654;28;20058;-46
2021/04/25 04:22:38;;;;;;;62.53;32.05;;;;;;;;;;4975283;28;20030;-46
2021/04/25 04:25:04;;;;;;;56.33;30.00;;;;;;;;;;4975459;28;20027;-46
2021/04/25 04:27:30;;;;;;;71.82;30.75;;;;;;;;;;4975265;28;20031;-46
2021/04/25 04:29:56;;;;;;;48.70;26.52;;;;;;;;;;4975277;28;20035;-46
2021/04/25 04:32:22;;;;;;;45.65;24.92;;;;;;;;;;4975639;28;20023;-46
2021/04/25 04:34:48;;;;;;;52.13;26.17;;;;;;;;;;4975128;28;20058;-47
2021/04/25 04:37:14;;;;;;;45.65;26.45;;;;;;;;;;4975305;28;20054;-46
2021/04/25 04:39:41;;;;;;;41.65;24.52;;;;;;;;;;4975317;28;20027;-46
2021/04/25 04:42:07;;;;;;;45.70;25.75;;;;;;;;;;4974961;28;20424;-47
2021/04/25 04:44:33;;;;;;;43.47;25.50;;;;;;;;;;4975268;28;20031;-47
2021/04/25 04:46:59;;;;;;;43.00;26.20;;;;;;;;;;4975018;28;20026;-47
2021/04/25 04:49:25;;;;;;;50.55;27.60;;;;;;;;;;4975146;28;20047;-47
2021/04/25 04:51:51;;;;;;;40.42;25.90;;;;;;;;;;4975029;28;20026;-47
2021/04/25 04:54:17;;;;;;;47.67;29.70;;;;;;;;;;4974917;28;20114;-47
2021/04/25 04:56:46;;;;;;;43.90;29.38;;;;;;;;;;4974938;28;20383;-47
2021/04/25 04:59:12;;;;;;;45.80;29.10;;;;;;;;;;4974427;28;20612;-47
2021/04/25 05:01:38;;;;;;;51.22;30.95;;;;;;;;;;4975011;28;20029;-47
2021/04/25 05:04:04;;;;;;;42.75;27.77;;;;;;;;;;4974886;28;20101;-47
2021/04/25 05:06:30;;;;;;;39.20;25.88;;;;;;;;;;4974551;28;20059;-47
2021/04/25 05:08:56;;;;;;;35.25;24.98;;;;;;;;;;4974733;28;20027;-48
2021/04/25 05:11:22;;;;;;;36.50;25.40;;;;;;;;;;4974799;28;20479;-46
2021/04/25 05:13:48;;;;;;;36.72;24.52;;;;;;;;;;4957128;28;20395;-46
2021/04/25 05:16:15;;;;;;;28.60;20.92;;;;;;;;;;4974679;28;20030;-46
2021/04/25 05:18:42;;;;;;;33.25;24.52;;;;;;;;;;4974888;28;20077;-46
2021/04/25 05:21:08;;;;;;;34.60;24.23;;;;;;;;;;4974634;28;20031;-46
2021/04/25 05:23:34;;;;;;;34.38;24.27;;;;;;;;;;4974543;28;20026;-47
2021/04/25 05:26:00;;;;;;;31.92;22.67;;;;;;;;;;4974748;28;20471;-47
2021/04/25 05:28:30;;;;;;;29.40;22.17;;;;;;;;;;4974395;28;20041;-47
2021/04/25 05:30:56;;;;;;;30.25;21.75;;;;;;;;;;4974739;28;20386;-47
2021/04/25 05:33:23;;;;;;;29.35;22.67;;;;;;;;;;4974640;28;20054;-47
2021/04/25 05:35:49;;;;;;;29.73;23.25;;;;;;;;;;4974428;28;20035;-48
2021/04/25 05:38:15;;;;;;;32.42;24.40;;;;;;;;;;4974569;28;20027;-47
2021/04/25 05:40:41;;;;;;;30.75;24.20;;;;;;;;;;4974449;28;20031;-47
2021/04/25 05:43:07;;;;;;;32.72;26.55;;;;;;;;;;4974326;28;20019;-47
2021/04/25 05:45:34;;;;;;;31.38;23.52;;;;;;;;;;4974379;28;20034;-47
2021/04/25 05:48:00;;;;;;;30.58;20.25;;;;;;;;;;4974614;28;20050;-47
2021/04/25 05:50:27;;;;;;;23.60;18.83;;;;;;;;;;4974302;28;20093;-47
2021/04/25 05:52:54;;;;;;;25.65;19.75;;;896.10;332.80;;;;;;4974351;28;20038;-47
2021/04/25 05:55:20;;;;;;;23.85;18.02;;;;;;;;;;4974220;28;20085;-47
2021/04/25 05:57:46;;;;;;;19.73;17.42;;;;;;;;;;4974207;28;20019;-47
2021/04/25 06:00:14;;;;;;;25.45;17.63;;;;;;;;;;4974380;28;20030;-47
2021/04/25 06:02:40;;;;;;;24.95;18.63;;;;;;;;;;4974109;28;20050;-47
2021/04/25 06:05:07;;;;;;;25.83;17.67;;;;;;;;;;4974249;28;20129;-46
2021/04/25 06:07:33;;;;;;;25.17;19.15;;;;;;;;;;4974094;28;20054;-46
2021/04/25 06:09:59;;;;;;;36.10;25.52;;;;;;;;;;4974230;28;20031;-46
2021/04/25 06:12:25;;;;;;;36.78;28.10;;;;;;;;;;4976282;28;20050;-46
2021/04/25 06:14:51;;;;;;;63.55;40.92;;;;;;;;;;4977688;28;20034;-46
2021/04/25 06:17:17;;;;;;;31.60;21.83;;;;;;;;;;4977710;28;20027;-46
2021/04/25 06:19:44;;;;;;;27.40;20.30;;;;;;;;;;4977720;28;20394;-46
2021/04/25 06:22:13;;;;;;;29.27;20.67;;;;;;;;;;4977702;28;20539;-47
2021/04/25 06:24:39;;;;;;;28.92;21.38;;;;;;;;;;4977614;28;20523;-46
2021/04/25 06:27:05;;;;;;;28.95;21.50;;;;;;;;;;4977349;28;20089;-46
2021/04/25 06:29:32;;;;;;;29.95;22.42;;;;;;;;;;4977330;28;20050;-46
2021/04/25 06:31:58;;;;;;;32.80;20.50;;;;;;;;;;4977474;28;20034;-45
2021/04/25 06:34:24;;;;;;;25.70;18.52;;;;;;;;;;4977508;28;20379;-45
2021/04/25 06:36:50;;;;;;;24.67;17.90;;;;;;;;;;4977260;28;20031;-46
2021/04/25 06:39:16;;;;;;;26.42;18.15;;;;;;;;;;4977193;28;20031;-46
2021/04/25 06:41:42;;;;;;;31.13;21.50;;;;;;;;;;4977279;28;20030;-46
2021/04/25 06:44:09;;;;;;;26.83;19.60;;;;;;;;;;4977249;28;20035;-47
2021/04/25 06:46:35;;;;;;;28.30;18.33;;;;;;;;;;4977157;28;20034;-46
2021/04/25 06:49:01;;;;;;;22.98;16.45;;;;;;;;;;4977139;28;20623;-46
2021/04/25 06:51:27;;;;;;;21.83;15.93;;;;;;;;;;4977280;28;20487;-46
2021/04/25 06:53:53;;;;;;;26.95;17.63;;;;;;;;;;4976980;28;20034;-45
2021/04/25 06:56:20;;;;;;;27.17;16.55;;;;;;;;;;4976949;28;20027;-46
2021/04/25 06:58:46;;;;;;;24.95;15.82;;;;;;;;;;4976752;28;20019;-46
2021/04/25 07:01:12;;;;;;;20.95;15.30;;;;;;;;;;4976884;28;20475;-49
2021/04/25 07:03:39;;;;;;;21.88;15.23;;;;;;;;;;4977124;28;20403;-47
2021/04/25 07:06:05;;;;;;;24.08;14.40;;;;;;;;;;4976810;28;20042;-46
2021/04/25 07:08:31;;;;;;;20.10;14.50;;;;;;;;;;4976838;28;20042;-46
2021/04/25 07:10:57;;;;;;;22.10;13.35;;;;;;;;;;4976725;28;20042;-45
2021/04/25 07:13:23;;;;;;;34.15;14.07;;;;;;;;;;4976581;28;20086;-46
2021/04/25 07:15:50;;;;;;;21.70;14.10;;;;;;;;;;4976864;28;20034;-47
2021/04/25 07:18:16;;;;;;;20.88;13.85;;;;;;;;;;4976728;28;20391;-47
2021/04/25 07:20:42;;;;;;;22.02;13.68;;;;;;;;;;4976602;28;20031;-47
2021/04/25 07:23:08;;;;;;;20.67;13.73;;;;;;;;;;4976040;28;20026;-47
2021/04/25 07:25:35;;;;;;;21.10;14.85;;;;;;;;;;4976653;28;20018;-48
2021/04/25 07:28:03;;;;;;;21.50;12.35;;;;;;;;;;4976230;28;20109;-47
2021/04/25 07:30:29;;;;;;;18.45;12.77;;;;;;;;;;4976336;28;20035;-47
2021/04/25 07:32:56;;;;;;;24.27;13.88;;;;;;;;;;4976420;28;20086;-47
2021/04/25 07:35:22;;;;;;;24.23;13.25;;;;;;;;;;4976186;28;20038;-47
2021/04/25 07:37:49;;;;;;;20.67;12.68;;;;;;;;;;4976358;28;20019;-49
2021/04/25 07:40:16;;;;;;;35.08;13.18;;;;;;;;;;4976585;28;20078;-48
2021/04/25 07:42:42;;;;;;;23.92;13.15;;;;;;;;;;4976298;28;20022;-48
2021/04/25 07:45:12;;;;;;;22.20;12.68;;;;;;;;;;4976312;28;20031;-47
2021/04/25 07:47:39;;;;;;;20.17;12.05;;;;;;;;;;4976353;28;20023;-48
2021/04/25 07:50:05;;;;;;;19.38;11.00;;;;;;;;;;4976058;28;20030;-48
2021/04/25 07:52:32;;;;;;;19.60;11.30;;;;;;;;;;4976171;28;20026;-48
2021/04/25 07:54:58;;;;;;;21.60;10.68;;;;;;;;;;4976007;28;20054;-48
2021/04/25 07:57:24;;;;;;;14.85;9.55;;;;;;;;;;4975650;28;20038;-48
2021/04/25 07:59:50;;;;;;;18.55;9.95;;;;;;;;;;4975922;28;20026;-46
2021/04/25 08:02:17;;;;;;;17.50;9.60;;;;;;;;;;4975724;28;20037;-48
2021/04/25 08:04:43;;;;;;;24.27;13.60;;;;;;;;;;4976052;28;20031;-47
2021/04/25 08:07:09;;;;;;;67.30;42.83;;;;;;;;;;4958133;28;20407;-45
2021/04/25 08:09:35;;;;;;;47.75;26.95;;;;;;;;;;4975739;28;20483;-47
2021/04/25 08:12:03;;;;;;;50.30;25.52;;;;;;;;;;4975545;28;20149;-46
2021/04/25 08:14:29;;;;;;;23.67;14.50;;;;;;;;;;4975603;28;20110;-48
2021/04/25 08:16:55;;;;;;;26.13;14.68;;;;;;;;;;4975604;28;20023;-46
2021/04/25 08:19:21;;;;;;;17.52;10.95;;;;;;;;;;4975539;28;20097;-49
2021/04/25 08:21:47;;;;;;;26.70;10.07;;;;;;;;;;4975699;28;20113;-46
2021/04/25 08:24:13;;;;;;;28.95;15.23;;;;;;;;;;4975375;28;20030;-45
2021/04/25 08:26:40;;;;;;;31.90;16.88;;;;;;;;;;4975283;28;20139;-47
2021/04/25 08:29:06;;;;;;;23.45;13.60;;;;;;;;;;4975039;28;20062;-46
2021/04/25 08:31:32;;;;;;;54.17;30.80;;;;;;;;;;4971945;28;20031;-47
2021/04/25 08:33:58;;;;;;;21.90;12.27;;;;;;;;;;4974279;28;20027;-47
2021/04/25 08:36:24;;;;;;;83.90;41.78;;;;;;;;;;4975038;28;20471;-47
2021/04/25 08:38:50;;;;;;;68.05;37.67;;;;;;;;;;4975208;28;20109;-53
2021/04/25 08:41:17;;;;;;;45.15;24.35;;;;;;;;;;4975017;28;20093;-50
2021/04/25 08:43:44;;;;;;;23.80;11.57;;;;;;;;;;4974919;28;20052;-46
2021/04/25 08:46:12;;;;;;;16.25;9.90;;;;;;;;;;4975201;28;20550;-46
2021/04/25 08:48:39;;;;;;;65.30;41.00;;;;;;;;;;4975264;28;20066;-44
2021/04/25 08:51:06;;;;;;;31.23;18.13;;;;;;;;;;4974808;28;20035;-46
2021/04/25 08:53:32;;;;;;;73.82;36.47;;;;;;;;;;4963485;28;20075;-46
2021/04/25 08:55:58;;;;;;;25.70;12.68;;;;;;;;;;4956732;28;20043;-45
2021/04/25 08:58:24;;;;;;;19.45;10.50;;;;;;;;;;4978359;28;20042;-46
2021/04/25 09:00:51;;;;;;;40.60;22.65;;;;;;;;;;4976108;28;20031;-44
2021/04/25 09:03:17;;;;;;;52.63;34.75;;;;;;;;;;4974806;28;20038;-44
2021/04/25 09:05:46;;;;;;;22.02;11.80;;;;;;;;;;4974455;28;20114;-43
2021/04/25 09:08:12;;;;;;;79.50;46.20;;;;;;;;;;4974630;28;20031;-44
2021/04/25 09:10:40;;;;;;;24.17;11.05;;;;;;;;;;4974611;28;20041;-44
2021/04/25 09:13:24;;;;;;;18.75;9.52;;;;;;;;;;4956333;28;20135;-45
2021/04/25 09:15:55;;;;;;;22.55;10.43;;;;;;;;;;4945506;28;20027;-46
2021/04/25 09:18:31;;;;;;;17.23;9.25;;;;;;;;;;4944848;28;20109;-47
2021/04/25 09:21:07;;;;;;;22.73;10.70;;;;;;;;;;4944550;28;20038;-47
2021/04/25 09:23:33;;;;;;;15.85;9.05;;;;;;;;;;4945843;28;20042;-46
2021/04/25 09:26:00;;;;;;;16.02;10.43;;;;;;;;;;4945161;28;20526;-44
2021/04/25 09:28:27;;;;;;;20.52;10.75;;;;;;;;;;4945518;28;20427;-44
2021/04/25 09:31:01;;;;;;;17.83;10.65;;;;;;;;;;4945723;28;20035;-45
2021/04/25 09:33:29;;;;;;;19.67;11.15;;;;;;;;;;4944378;28;20027;-46
2021/04/25 09:35:56;;;;;;;17.45;9.13;;;;;;;;;;4945114;28;20061;-47
2021/04/25 09:38:23;;;;;;;21.02;10.68;;;;;;;;;;4944741;28;20768;-46
2021/04/25 09:40:49;;;;;;;36.05;17.55;;;;;;;;;;4946697;28;20042;-45
2021/04/25 09:43:16;;;;;;;30.95;15.85;;;;;;;;;;4945658;28;20022;-45
2021/04/25 09:45:43;;;;;;;30.30;15.50;;;;;;;;;;4947409;28;20034;-46
2021/04/25 09:48:29;;;;;;;18.17;10.52;;;;;;;;;;4951073;28;20035;-46
2021/04/25 09:51:08;;;;;;;19.55;9.45;;;;;;;;;;4947836;28;20038;-46
2021/04/25 09:53:34;;;;;;;17.35;9.10;;;;;;;;;;4949365;28;20143;-46
2021/04/25 09:56:01;;;;;;;18.08;10.23;;;;;;;;;;4949319;28;20023;-45
2021/04/25 09:58:27;;;;;;;20.70;12.18;;;;;;;;;;4948061;28;20487;-46
2021/04/25 10:00:54;;;;;;;21.90;12.55;;;;;;;;;;4948394;28;20031;-46
2021/04/25 10:03:22;;;;;;;82.80;51.97;;;;;;;;;;4952976;28;20023;-46
2021/04/25 10:05:58;;;;;;;40.50;21.92;;;;;;;;;;4953194;28;20722;-46
2021/04/25 10:08:28;;;;;;;26.23;13.25;;;;;;;;;;4952695;28;20440;-48
2021/04/25 10:10:54;;;;;;;16.85;9.65;;;;;;;;;;4949961;28;20039;-46
2021/04/25 10:13:20;;;;;;;48.60;26.17;;;;;;;;;;4947693;28;20027;-47
2021/04/25 10:15:46;;;;;;;221.02;165.45;;;;;;;;;;4947719;28;20043;-47
2021/04/25 10:18:13;;;;;;;31.35;15.00;;;;;;;;;;4947477;28;20189;-46
2021/04/25 10:20:39;;;;;;;129.68;81.55;;;;;;;;;;4947571;28;20747;-46
2021/04/25 10:23:06;;;;;;;31.95;15.95;;;;;;;;;;4947756;28;20086;-46
2021/04/25 10:25:34;;;;;;;34.63;22.23;;;;;;;;;;4947499;28;20109;-47
2021/04/25 10:28:05;;;;;;;19.05;10.55;;;;;;;;;;4948060;28;20380;-45
2021/04/25 10:30:32;;;;;;;16.87;9.47;;;;;;;;;;4947666;28;20042;-46
2021/04/25 10:33:01;;;;;;;19.20;11.93;;;;;;;;;;4947154;28;20058;-45
2021/04/25 10:35:33;;;;;;;24.95;13.77;;;;;;;;;;4947334;28;20038;-46
2021/04/25 10:37:59;;;;;;;15.07;10.00;;;;;;;;;;4947377;28;20085;-46
2021/04/25 10:40:29;;;;;;;28.70;17.08;;;;;;;;;;4947273;28;20439;-46
2021/04/25 10:42:58;;;;;;;13.93;9.00;;;;;;;;;;4947577;28;20529;-46
2021/04/25 10:45:28;;;;;;;14.75;9.30;;;;;;;;;;4948550;28;20082;-47
2021/04/25 10:48:13;;;;;;;193.40;126.10;;;;;;;;;;4947157;28;20035;-45
2021/04/25 10:50:40;;;;;;;16.23;8.63;;;;;;;;;;4946941;28;20349;-46
2021/04/25 10:53:18;;;;;;;18.30;9.10;;;;;;;;;;4947088;28;20377;-46
2021/04/25 10:55:46;;;;;;;54.88;30.55;;;;;;;;;;4947059;28;20027;-46
2021/04/25 10:58:17;;;;;;;36.65;20.27;;;;;;;;;;4946188;28;20130;-46
2021/04/25 11:00:45;;;;;;;21.90;11.02;;;;;;;;;;4946545;28;20026;-45
2021/04/25 11:03:15;;;;;;;33.05;14.18;;;;;;;;;;4947139;28;20027;-45
2021/04/25 11:05:41;;;;;;;28.13;12.13;;;;;;;;;;4946767;28;20595;-47
2021/04/25 11:08:14;;;;;;;23.67;11.45;;;;;;;;;;4946945;28;20335;-45
2021/04/25 11:10:51;;;;;;;30.58;14.65;;;;;;;;;;4946541;28;20038;-46
2021/04/25 11:13:57;;;;;;;29.52;15.40;;;;;;;;;;4947084;28;20040;-45
2021/04/25 11:16:30;;;;;;;25.42;13.98;;;;;;;;;;4946194;28;20034;-45
2021/04/25 11:19:06;;;;;;;19.23;10.05;;;;;;;;;;4950156;28;20034;-46
2021/04/25 11:21:38;;;;;;;16.92;9.48;;;;;;;;;;4946605;28;20082;-46
2021/04/25 11:24:05;;;;;;;14.02;9.27;;;;;;;;;;4946370;28;20027;-46
2021/04/25 11:26:39;;;;;;;40.70;20.05;;;;;;;;;;4946515;28;20022;-46
2021/04/25 11:29:05;;;;;;;59.05;35.95;;;;;;;;;;4946393;28;20023;-44
2021/04/25 11:34:31;;;;;;;25.83;13.55;;;;;;;;;;4948129;28;20825;-45
2021/04/25 11:37:05;;;;;;;14.55;8.35;;;;;;;;;;4946276;28;20118;-46
2021/04/25 11:39:32;;;;;;;21.75;10.45;;;;;;;;;;4946150;28;20792;-45
2021/04/25 11:41:58;;;;;;;26.67;16.90;;;;;;;;;;4947134;28;20383;-45
2021/04/25 11:44:35;;;;;;;33.75;18.42;;;;;;;;;;4947210;28;20433;-45
2021/04/25 11:47:06;;;;;;;19.77;12.65;;;;;;;;;;4946513;28;20018;-47
2021/04/25 11:49:38;;;;;;;27.90;15.45;;;;;;;;;;4946488;28;20027;-51
2021/04/25 11:52:11;;;;;;;17.10;10.23;;;;;;;;;;4947080;28;20049;-46
2021/04/25 11:54:37;;;;;;;17.55;10.82;;;;;;;;;;4945928;28;20134;-47
2021/04/25 11:57:08;;;;;;;36.05;20.95;;;;;;;;;;4946896;28;20035;-46
2021/04/25 11:59:34;;;;;;;25.63;14.18;;;;;;;;;;4947371;28;20033;-45
2021/04/25 12:02:10;;;;;;;19.55;10.63;;;;;;;;;;4948864;28;20034;-45
2021/04/25 12:04:48;;;;;;;19.95;12.32;;;;;;;;;;4950338;28;20081;-46
2021/04/25 12:07:31;;;;;;;26.00;13.25;;;;;;;;;;4949901;28;20058;-48
2021/04/25 12:09:57;;;;;;;21.35;12.45;;;;;;;;;;4945894;28;20042;-46
2021/04/25 12:12:24;;;;;;;17.08;9.35;;;;;;;;;;4945913;28;20086;-47
2021/04/25 12:15:00;;;;;;;19.30;10.20;;;;;;;;;;4945564;28;20055;-47
2021/04/25 12:17:27;;;;;;;15.07;9.38;;;;;;;;;;4942858;28;20027;-46
2021/04/25 12:19:53;;;;;;;14.57;9.30;;;;;;;;;;4945322;28;20468;-46
2021/04/25 12:22:19;;;;;;;15.55;9.15;;;;;;;;;;4927071;28;20523;-46
2021/04/25 12:24:48;;;;;;;19.20;10.18;;;;;;;;;;4945718;28;20029;-47
2021/04/25 12:27:14;;;;;;;16.35;9.88;;;;;;;;;;4928159;28;20415;-46
2021/04/25 12:29:41;;;;;;;15.05;7.70;;;;;;;;;;4945133;28;20028;-46
2021/04/25 12:32:17;;;;;;;14.48;9.20;;;;;;;;;;4945468;28;20440;-47
2021/04/25 12:34:54;;;;;;;17.48;10.30;;;;;;;;;;4945175;28;20050;-46
2021/04/25 12:37:33;;;;;;;16.58;9.23;;;;;;;;;;4949259;28;20516;-46
2021/04/25 12:40:00;;;;;;;16.38;9.65;;;;;;;;;;4944711;28;20023;-48
2021/04/25 12:42:26;;;;;;;16.23;9.10;;;;;;;;;;4946274;28;20166;-46
2021/04/25 12:44:52;;;;;;;17.10;9.77;;;;;;;;;;4927677;28;20031;-47
2021/04/25 12:47:28;;;;;;;17.75;9.00;;;;;;;;;;4945131;28;20043;-46
2021/04/25 12:49:54;;;;;;;20.95;8.82;;;;;;;;;;4946100;28;20118;-47
2021/04/25 12:52:33;;;;;;;20.92;9.30;;;;;;;;;;4944910;28;20552;-47
2021/04/25 12:54:59;;;;;;;12.40;8.80;;;;;;;;;;4946823;28;20023;-46
2021/04/25 12:57:29;;;;;;;14.20;8.63;;;;;;;;;;4947744;28;20086;-48
2021/04/25 12:59:55;;;;;;;15.05;7.82;;;;;;;;;;4947667;28;20031;-48
2021/04/25 13:02:23;;;;;;;14.75;9.15;;;;;;;;;;4946405;28;20023;-46
2021/04/25 13:04:50;;;;;;;14.90;9.02;;;;;;;;;;4947522;28;20076;-45
2021/04/25 13:07:16;;;;;;;19.20;9.20;;;;;;;;;;4946535;28;20210;-46
2021/04/25 13:09:44;;;;;;;17.15;8.57;;;;;;;;;;4945079;28;20035;-46
2021/04/25 13:12:20;;;;;;;12.32;7.82;;;;;;;;;;4945642;28;20053;-46
2021/04/25 13:15:07;;;;;;;15.50;8.43;;;;;;;;;;4926592;28;20039;-46
2021/04/25 13:17:34;;;;;;;14.32;8.00;;;;;;;;;;4944854;28;20027;-47
2021/04/25 13:20:02;;;;;;;13.27;7.93;;;;;;;;;;4944312;28;20034;-46
2021/04/25 13:22:28;;;;;;;19.48;10.05;;;;;;;;;;4946109;28;20182;-50
2021/04/25 13:24:55;;;;;;;16.10;9.73;;;;;;;;;;4944761;28;20829;-46
2021/04/25 13:27:22;;;;;;;16.23;8.27;;;;;;;;;;4944587;28;20483;-47
2021/04/25 13:29:50;;;;;;;14.60;7.90;;;;;;;;;;4944235;28;20030;-46
2021/04/25 13:32:18;;;;;;;16.65;8.73;;;;;;;;;;4944555;28;20138;-46
2021/04/25 13:34:45;;;;;;;13.82;7.47;;;;;;;;;;4944412;28;20135;-47
2021/04/25 13:37:16;;;;;;;15.30;7.03;;;;;;;;;;4944427;28;20031;-48
2021/04/25 13:39:43;;;;;;;14.52;7.90;;;;;;;;;;4944100;28;20397;-46
2021/04/25 13:42:09;;;;;;;9.45;6.35;;;;;;;;;;4944629;28;20175;-45
2021/04/25 13:44:35;;;;;;;12.43;6.43;;;;;;;;;;4944399;28;20027;-48
2021/04/25 13:47:02;;;;;;;17.05;7.65;;;;;;;;;;4944804;28;20059;-48
2021/04/25 13:49:28;;;;;;;16.30;7.43;;;;;;;;;;4945182;28;20491;-46
2021/04/25 13:51:54;;;;;;;12.68;7.22;;;;;;;;;;4944369;28;20067;-46
2021/04/25 13:54:21;;;;;;;14.90;7.25;;;;;;;;;;4944438;28;20038;-47
2021/04/25 13:56:47;;;;;;;11.25;7.25;;;;;;;;;;4944193;28;20175;-47
2021/04/25 13:59:15;;;;;;;13.18;7.10;;;;;;;;;;4948010;28;20072;-46
2021/04/25 14:01:41;;;;;;;12.90;6.75;;;;;;;;;;4946754;28;20018;-46
2021/04/25 14:04:08;;;;;;;12.45;7.80;;;;;;;;;;4947727;28;20023;-48
2021/04/25 14:06:39;;;;;;;11.60;6.97;;;;;;;;;;4949446;28;20095;-46
2021/04/25 14:09:06;;;;;;;14.25;8.32;;;;;;;;;;4944937;28;20106;-47
2021/04/25 14:11:33;;;;;;;17.00;7.60;;;;;;;;;;4944219;28;20035;-45
2021/04/25 14:14:00;;;;;;;10.68;6.63;;;;;;;;;;4943914;28;20051;-46
2021/04/25 14:16:29;;;;;;;12.63;7.63;;;;;;;;;;4944333;28;20035;-46
2021/04/25 14:18:56;;;;;;;13.07;7.35;;;;;;;;;;4944093;28;20023;-46
2021/04/25 14:21:22;;;;;;;14.30;8.25;;;;;;;;;;4944246;28;20762;-47
2021/04/25 14:23:51;;;;;;;13.23;8.13;;;;;;;;;;4944781;28;20019;-45